Terminal Aerodrome Forecast
Issued by NWS

Home | Current Version | Previous Version | Text Only | Print | Product List | Glossary On
Versions: 1 2 3 4 5 6 7 8 9 10 11 12 13 14 15 16
569
FTUS44 KBMX 280540
TAFANB
TAF
KANB 280540Z 2806/0106 05004KT 4SM BR OVC003
      TEMPO 2811/2814 1/2SM FG OVC002
     FM281500 07005KT 4SM BR OVC004
     FM281700 14005KT P6SM VCSH OVC009
     FM281900 17009KT P6SM VCSH SCT007 OVC013=

USA.gov is the U.S. government's official web portal to all federal, state and local government web resources and services.